createdAt,value
2022-10-02T00:00:34.194Z,2.75
2022-10-02T00:03:22.482Z,3.00
2022-10-02T00:06:04.684Z,2.25
2022-10-02T00:08:40.364Z,3.00
2022-10-02T00:11:23.322Z,3.00
2022-10-02T00:14:03.906Z,2.50
2022-10-02T00:16:52.228Z,2.00
2022-10-02T00:19:24.516Z,2.75
2022-10-02T00:22:07.500Z,2.25
2022-10-02T00:25:04.196Z,2.25
2022-10-02T00:27:55.110Z,2.00
2022-10-02T00:30:28.369Z,4.00
2022-10-02T00:33:26.932Z,3.25
2022-10-02T00:36:21.581Z,3.00
2022-10-02T00:39:29.445Z,3.00
2022-10-02T00:42:23.415Z,2.75
2022-10-02T00:44:59.583Z,3.00
2022-10-02T00:48:05.032Z,2.00
2022-10-02T00:51:13.494Z,4.00
2022-10-02T00:54:19.649Z,3.50
2022-10-02T00:57:02.101Z,2.25
2022-10-02T01:00:00.362Z,3.50
2022-10-02T01:02:34.100Z,3.25
2022-10-02T01:05:10.613Z,3.00
2022-10-02T01:07:46.197Z,1.50
2022-10-02T01:10:19.450Z,1.00
2022-10-02T01:12:50.886Z,4.25
2022-10-02T01:15:28.791Z,3.50
2022-10-02T01:18:00.948Z,3.25
2022-10-02T01:20:48.831Z,3.00
2022-10-02T01:23:48.842Z,4.00
2022-10-02T01:26:21.423Z,3.00
2022-10-02T01:28:53.443Z,4.00
2022-10-02T01:31:25.934Z,4.50
2022-10-02T01:33:56.037Z,4.75
2022-10-02T01:36:31.428Z,3.75
2022-10-02T01:39:02.947Z,4.25
2022-10-02T01:41:34.039Z,4.25
2022-10-02T01:44:05.552Z,4.00
2022-10-02T01:46:56.419Z,4.00
2022-10-02T01:49:59.343Z,3.00
2022-10-02T01:52:51.553Z,4.00
2022-10-02T01:56:07.979Z,3.00
2022-10-02T01:58:55.193Z,4.00
2022-10-02T02:01:26.643Z,4.75
2022-10-02T02:04:35.031Z,6.00
2022-10-02T02:07:20.084Z,5.00
2022-10-02T02:10:02.213Z,4.50
2022-10-02T02:12:48.363Z,5.00
2022-10-02T02:15:35.445Z,5.00
2022-10-02T02:18:31.370Z,4.75
2022-10-02T02:21:10.245Z,3.00
2022-10-02T02:23:43.026Z,5.00
2022-10-02T02:26:20.720Z,5.25
2022-10-02T02:28:59.180Z,3.00
2022-10-02T02:31:43.795Z,4.25
2022-10-02T02:34:17.535Z,6.00
2022-10-02T02:36:52.106Z,4.50
2022-10-02T02:39:30.857Z,4.25
2022-10-02T02:42:11.116Z,4.50
2022-10-02T02:44:51.087Z,5.00
2022-10-02T02:47:32.713Z,4.75
2022-10-02T02:50:22.995Z,5.00
2022-10-02T02:53:14.370Z,5.25
2022-10-02T02:55:52.622Z,5.00
2022-10-02T02:58:48.997Z,5.25
2022-10-02T03:01:25.651Z,4.25
2022-10-02T03:04:09.220Z,3.75
2022-10-02T03:06:48.184Z,5.00
2022-10-02T03:09:27.630Z,4.50
2022-10-02T03:12:06.769Z,4.25
2022-10-02T03:15:03.495Z,6.00
2022-10-02T03:17:55.973Z,6.00
2022-10-02T03:20:43.095Z,5.00
2022-10-02T03:23:53.412Z,7.75
2022-10-02T03:26:30.827Z,8.00
2022-10-02T03:29:05.986Z,7.00
2022-10-02T03:31:41.682Z,10.25
2022-10-02T03:34:13.263Z,8.25
2022-10-02T03:36:49.532Z,9.50
2022-10-02T03:39:25.102Z,8.25
2022-10-02T03:41:57.674Z,9.00
2022-10-02T03:44:27.713Z,8.25
2022-10-02T03:46:58.489Z,8.50
2022-10-02T03:49:35.353Z,7.25
2022-10-02T03:52:17.968Z,7.50
2022-10-02T03:54:51.179Z,8.25
2022-10-02T03:57:28.546Z,5.00
2022-10-02T04:00:19.073Z,4.50
2022-10-02T04:03:01.145Z,6.75
2022-10-02T04:06:03.421Z,5.00
2022-10-02T04:09:31.981Z,4.00
2022-10-02T04:12:09.624Z,5.50
2022-10-02T04:15:16.040Z,6.25
2022-10-02T04:17:56.897Z,5.00
2022-10-02T04:20:43.446Z,5.00
2022-10-02T04:23:44.111Z,5.50
2022-10-02T04:26:43.868Z,5.00
2022-10-02T04:29:21.667Z,2.25
2022-10-02T04:32:02.142Z,4.75
2022-10-02T04:34:33.995Z,5.00
2022-10-02T04:37:10.288Z,4.00
2022-10-02T04:39:53.496Z,5.50
2022-10-02T04:42:51.465Z,5.00
2022-10-02T04:45:33.061Z,2.25
2022-10-02T04:48:18.835Z,6.00
2022-10-02T04:51:01.565Z,4.00
2022-10-02T04:53:43.475Z,4.75
2022-10-02T04:57:03.634Z,4.00
2022-10-02T04:59:39.485Z,4.75
2022-10-02T05:02:24.027Z,5.00
2022-10-02T05:04:54.856Z,5.33
2022-10-02T05:07:45.307Z,5.00
2022-10-02T05:10:18.606Z,6.00
2022-10-02T05:13:12.391Z,5.00
2022-10-02T05:16:14.143Z,5.00
2022-10-02T05:18:47.020Z,5.00
2022-10-02T05:22:00.561Z,5.00
2022-10-02T05:24:36.040Z,5.67
2022-10-02T05:27:29.962Z,6.00
2022-10-02T05:30:07.814Z,7.00
2022-10-02T05:33:23.326Z,3.00
2022-10-02T05:36:23.597Z,5.00
2022-10-02T05:39:00.554Z,5.33
2022-10-02T05:41:42.298Z,6.67
2022-10-02T05:44:25.748Z,7.00
2022-10-02T05:47:11.156Z,5.00
2022-10-02T05:50:03.239Z,6.33
2022-10-02T05:52:59.954Z,4.00
2022-10-02T05:55:39.884Z,7.00
2022-10-02T05:58:29.298Z,5.67
2022-10-02T06:01:09.696Z,5.00
2022-10-02T06:04:11.274Z,5.33
2022-10-02T06:06:59.500Z,7.33
2022-10-02T06:09:45.141Z,8.33
2022-10-02T06:12:56.845Z,6.33
2022-10-02T06:15:43.655Z,5.33
2022-10-02T06:18:30.170Z,5.00
2022-10-02T06:21:26.176Z,5.00
2022-10-02T06:24:06.986Z,4.00
2022-10-02T06:26:43.527Z,4.00
2022-10-02T06:29:28.939Z,3.00
2022-10-02T06:32:24.284Z,5.00
2022-10-02T06:35:06.003Z,5.00
2022-10-02T06:37:52.319Z,5.67
2022-10-02T06:40:46.418Z,4.00
2022-10-02T06:43:33.786Z,6.00
2022-10-02T06:46:50.638Z,5.00
2022-10-02T06:49:47.104Z,4.00
2022-10-02T06:52:38.831Z,4.00
2022-10-02T06:55:32.368Z,4.33
2022-10-02T06:58:18.534Z,4.00
2022-10-02T07:01:10.972Z,5.00
2022-10-02T07:04:20.698Z,4.67
2022-10-02T07:07:28.486Z,5.00
2022-10-02T07:10:30.461Z,4.33
2022-10-02T07:13:51.731Z,5.67
2022-10-02T07:16:44.998Z,5.00
2022-10-02T07:20:00.935Z,3.00
2022-10-02T07:22:50.023Z,3.67
2022-10-02T07:25:41.592Z,5.00
2022-10-02T07:28:29.378Z,5.00
2022-10-02T07:31:25.425Z,3.67
2022-10-02T07:34:43.098Z,5.00
2022-10-02T07:37:33.624Z,4.75
2022-10-02T07:40:35.438Z,3.75
2022-10-02T07:43:26.333Z,4.00
2022-10-02T07:46:16.250Z,5.00
2022-10-02T07:48:56.113Z,1.75
2022-10-02T07:51:54.698Z,3.25
2022-10-02T07:54:50.289Z,2.25
2022-10-02T07:57:44.056Z,3.00
2022-10-02T08:00:20.538Z,3.00
2022-10-02T08:03:02.454Z,0.00
2022-10-02T08:06:02.670Z,3.75
2022-10-02T08:08:57.126Z,0.00
2022-10-02T08:11:48.592Z,3.00
2022-10-02T08:14:46.148Z,2.50
2022-10-02T08:17:40.556Z,3.00
2022-10-02T08:20:28.549Z,3.00
2022-10-02T08:23:33.921Z,6.75
2022-10-02T08:26:36.000Z,6.50
2022-10-02T08:29:11.182Z,7.00
2022-10-02T08:31:42.847Z,7.25
2022-10-02T08:34:25.732Z,8.00
2022-10-02T08:37:20.175Z,8.00
2022-10-02T08:40:10.692Z,5.75
2022-10-02T08:43:18.780Z,6.50
2022-10-02T08:46:26.944Z,7.25
2022-10-02T08:49:38.119Z,7.25
2022-10-02T08:52:27.337Z,6.00
2022-10-02T08:55:16.299Z,5.50
2022-10-02T08:58:08.019Z,4.75
2022-10-02T09:01:03.509Z,6.00
2022-10-02T09:03:56.875Z,6.00
2022-10-02T09:06:59.314Z,5.75
2022-10-02T09:10:00.581Z,5.00
2022-10-02T09:12:48.996Z,5.25
2022-10-02T09:15:39.951Z,6.50
2022-10-02T09:18:37.990Z,4.75
2022-10-02T09:21:17.990Z,4.00
2022-10-02T09:24:21.895Z,5.00
2022-10-02T09:27:20.801Z,5.00
2022-10-02T09:30:25.453Z,5.25
2022-10-02T09:33:32.149Z,4.50
2022-10-02T09:36:28.729Z,4.00
2022-10-02T09:39:56.567Z,4.00
2022-10-02T09:43:10.433Z,5.00
2022-10-02T09:46:31.214Z,6.00
2022-10-02T09:49:28.225Z,5.25
2022-10-02T09:52:11.249Z,4.00
2022-10-02T09:55:10.094Z,1.00
2022-10-02T09:57:55.930Z,4.25
2022-10-02T10:00:46.331Z,4.00
2022-10-02T10:03:41.106Z,4.00
2022-10-02T10:07:08.268Z,6.00
2022-10-02T10:10:00.792Z,5.25
2022-10-02T10:13:01.850Z,5.00
2022-10-02T10:16:11.860Z,5.50
2022-10-02T10:19:08.247Z,4.25
2022-10-02T10:22:15.521Z,3.00
2022-10-02T10:25:19.361Z,5.25
2022-10-02T10:28:21.302Z,4.25
2022-10-02T10:30:59.732Z,5.00
2022-10-02T10:33:54.137Z,4.50
2022-10-02T10:37:01.565Z,4.25
2022-10-02T10:40:14.864Z,4.00
2022-10-02T10:43:08.217Z,5.50
2022-10-02T10:46:00.427Z,5.25
2022-10-02T10:48:52.675Z,5.00
2022-10-02T10:51:58.554Z,4.00
2022-10-02T10:55:04.389Z,5.00
2022-10-02T10:57:58.834Z,4.75
2022-10-02T11:00:43.150Z,4.50
2022-10-02T11:03:58.970Z,5.25
2022-10-02T11:06:56.951Z,5.00
2022-10-02T11:09:53.615Z,5.25
2022-10-02T11:12:42.653Z,4.50
2022-10-02T11:15:51.341Z,4.00
2022-10-02T11:18:53.313Z,6.50
2022-10-02T11:21:36.166Z,6.50
2022-10-02T11:24:33.179Z,5.50
2022-10-02T11:27:39.246Z,4.75
2022-10-02T11:30:37.126Z,4.75
2022-10-02T11:33:29.372Z,5.00
2022-10-02T11:36:10.628Z,4.75
2022-10-02T11:39:02.090Z,5.50
2022-10-02T11:41:41.219Z,5.25
2022-10-02T11:44:34.444Z,5.75
2022-10-02T11:47:29.133Z,4.75
2022-10-02T11:50:41.185Z,5.00
2022-10-02T11:53:46.097Z,2.75
2022-10-02T11:57:01.426Z,6.00
2022-10-02T12:00:05.709Z,5.50
2022-10-02T12:02:48.660Z,5.00
2022-10-02T12:05:35.320Z,5.00
2022-10-02T12:08:18.854Z,5.00
2022-10-02T12:11:17.551Z,5.00
2022-10-02T12:14:10.732Z,5.00
2022-10-02T12:16:43.870Z,5.00
2022-10-02T12:19:26.834Z,5.75
2022-10-02T12:22:40.606Z,5.00
2022-10-02T12:26:15.413Z,5.75
2022-10-02T12:29:08.459Z,5.25
2022-10-02T12:32:17.769Z,5.00
2022-10-02T12:35:30.869Z,5.00
2022-10-02T12:38:23.475Z,5.25
2022-10-02T12:41:49.084Z,5.50
2022-10-02T12:44:45.690Z,4.25
2022-10-02T12:47:42.287Z,2.25
2022-10-02T12:50:40.425Z,2.50
2022-10-02T12:53:45.689Z,4.75
2022-10-02T12:56:29.170Z,4.50
2022-10-02T12:59:29.817Z,5.50
2022-10-02T13:02:59.608Z,4.75
2022-10-02T13:05:47.137Z,4.50
2022-10-02T13:08:26.688Z,5.00
2022-10-02T13:11:16.888Z,4.75
2022-10-02T13:14:35.177Z,5.00
2022-10-02T13:17:19.695Z,5.75
2022-10-02T13:20:16.484Z,4.75
2022-10-02T13:23:21.484Z,5.50
2022-10-02T13:26:27.237Z,4.75
2022-10-02T13:29:47.820Z,4.75
2022-10-02T13:32:40.728Z,4.75
2022-10-02T13:35:58.978Z,5.00
2022-10-02T13:38:58.885Z,6.00
2022-10-02T13:41:45.816Z,5.25
2022-10-02T13:44:18.597Z,5.75
2022-10-02T13:47:15.884Z,5.75
2022-10-02T13:50:16.759Z,4.50
2022-10-02T13:53:31.292Z,6.00
2022-10-02T13:56:15.439Z,5.75
2022-10-02T13:59:32.567Z,6.00
2022-10-02T14:02:27.705Z,4.50
2022-10-02T14:05:34.756Z,4.75
2022-10-02T14:08:28.577Z,5.50
2022-10-02T14:11:21.078Z,5.75
2022-10-02T14:14:34.624Z,6.00
2022-10-02T14:17:33.937Z,6.00
2022-10-02T14:20:17.294Z,5.00
2022-10-02T14:22:56.942Z,5.25
2022-10-02T14:25:37.943Z,6.00
2022-10-02T14:28:22.692Z,4.00
2022-10-02T14:31:07.543Z,5.00
2022-10-02T14:33:52.254Z,5.00
2022-10-02T14:36:38.760Z,5.75
2022-10-02T14:39:24.828Z,5.25
2022-10-02T14:42:17.090Z,5.00
2022-10-02T14:45:12.306Z,5.00
2022-10-02T14:48:03.224Z,7.75
2022-10-02T14:51:01.940Z,5.50
2022-10-02T14:53:51.317Z,5.00
2022-10-02T14:56:51.817Z,5.00
2022-10-02T15:00:12.136Z,4.75
2022-10-02T15:02:50.347Z,4.50
2022-10-02T15:05:54.959Z,6.25
2022-10-02T15:08:36.783Z,5.00
2022-10-02T15:11:20.742Z,5.00
2022-10-02T15:14:18.716Z,5.25
2022-10-02T15:17:22.743Z,4.75
2022-10-02T15:20:08.261Z,4.50
2022-10-02T15:22:49.193Z,4.25
2022-10-02T15:25:56.545Z,5.25
2022-10-02T15:28:39.655Z,3.00
2022-10-02T15:31:26.272Z,4.50
2022-10-02T15:34:17.579Z,5.00
2022-10-02T15:37:19.816Z,4.00
2022-10-02T15:40:12.720Z,5.00
2022-10-02T15:43:03.824Z,5.00
2022-10-02T15:45:37.084Z,5.67
2022-10-02T15:48:28.121Z,4.00
2022-10-02T15:51:30.145Z,4.00
2022-10-02T15:54:18.233Z,4.33
2022-10-02T15:57:12.244Z,3.33
2022-10-02T16:00:03.645Z,5.00
2022-10-02T16:02:59.571Z,4.00
2022-10-02T16:05:49.262Z,3.00
2022-10-02T16:08:54.238Z,4.00
2022-10-02T16:11:58.212Z,5.00
2022-10-02T16:14:40.517Z,4.00
2022-10-02T16:17:37.556Z,4.00
2022-10-02T16:20:15.128Z,5.00
2022-10-02T16:22:54.564Z,3.33
2022-10-02T16:25:54.696Z,5.00
2022-10-02T16:28:50.293Z,3.67
2022-10-02T16:32:04.205Z,3.00
2022-10-02T16:34:42.836Z,3.00
2022-10-02T16:37:54.418Z,5.00
2022-10-02T16:40:37.759Z,4.00
2022-10-02T16:43:45.236Z,3.00
2022-10-02T16:46:33.790Z,3.33
2022-10-02T16:49:36.921Z,4.00
2022-10-02T16:52:36.797Z,4.33
2022-10-02T16:55:48.725Z,4.00
2022-10-02T16:59:01.444Z,5.25
2022-10-02T17:02:18.231Z,6.00
2022-10-02T17:05:18.088Z,5.00
2022-10-02T17:08:03.702Z,5.00
2022-10-02T17:11:19.539Z,5.25
2022-10-02T17:14:24.487Z,7.00
2022-10-02T17:17:07.249Z,7.00
2022-10-02T17:20:06.730Z,7.33
2022-10-02T17:23:02.019Z,5.75
2022-10-02T17:25:51.045Z,6.50
2022-10-02T17:28:43.221Z,5.00
2022-10-02T17:31:43.523Z,5.50
2022-10-02T17:34:28.250Z,6.25
2022-10-02T17:37:08.565Z,6.00
2022-10-02T17:40:06.890Z,7.00
2022-10-02T17:43:08.697Z,5.75
2022-10-02T17:45:48.862Z,5.50
2022-10-02T17:48:48.951Z,5.75
2022-10-02T17:51:57.713Z,5.00
2022-10-02T17:55:21.596Z,4.25
2022-10-02T17:58:57.358Z,5.75
2022-10-02T18:01:57.986Z,3.00
2022-10-02T18:05:14.255Z,5.25
2022-10-02T18:08:04.220Z,6.25
2022-10-02T18:11:02.482Z,5.75
2022-10-02T18:13:59.726Z,5.50
2022-10-02T18:17:18.429Z,5.00
2022-10-02T18:20:23.003Z,5.75
2022-10-02T18:23:30.920Z,5.75
2022-10-02T18:26:31.416Z,5.75
2022-10-02T18:29:25.609Z,5.25
2022-10-02T18:32:50.550Z,6.50
2022-10-02T18:35:49.453Z,7.00
2022-10-02T18:38:46.995Z,7.00
2022-10-02T18:41:53.534Z,6.00
2022-10-02T18:44:34.976Z,5.25
2022-10-02T18:47:27.587Z,6.50
2022-10-02T18:50:26.997Z,6.25
2022-10-02T18:53:38.533Z,5.75
2022-10-02T18:56:26.883Z,6.00
2022-10-02T18:59:33.435Z,6.75
2022-10-02T19:02:28.425Z,6.00
2022-10-02T19:05:15.621Z,6.00
2022-10-02T19:08:14.742Z,6.00
2022-10-02T19:10:47.524Z,6.00
2022-10-02T19:13:43.622Z,6.00
2022-10-02T19:16:34.776Z,7.00
2022-10-02T19:19:26.024Z,4.50
2022-10-02T19:22:03.950Z,5.50
2022-10-02T19:24:42.740Z,6.00
2022-10-02T19:27:26.828Z,5.75
2022-10-02T19:30:10.221Z,4.50
2022-10-02T19:32:52.144Z,6.25
2022-10-02T19:35:29.898Z,5.75
2022-10-02T19:38:17.286Z,5.00
2022-10-02T19:41:01.813Z,5.25
2022-10-02T19:43:41.127Z,6.00
2022-10-02T19:46:25.368Z,5.25
2022-10-02T19:49:05.353Z,6.25
2022-10-02T19:51:49.828Z,6.75
2022-10-02T19:54:31.167Z,6.00
2022-10-02T19:57:15.640Z,6.00
2022-10-02T19:59:55.098Z,7.00
2022-10-02T20:02:38.151Z,7.00
2022-10-02T20:05:15.607Z,6.00
2022-10-02T20:07:55.164Z,7.00
2022-10-02T20:10:43.319Z,6.00
2022-10-02T20:13:27.610Z,6.00
2022-10-02T20:16:39.323Z,6.25
2022-10-02T20:19:29.660Z,5.75
2022-10-02T20:22:05.851Z,7.00
2022-10-02T20:25:05.404Z,6.25
2022-10-02T20:27:57.908Z,6.50
2022-10-02T20:30:36.581Z,6.00
2022-10-02T20:33:38.128Z,6.75
2022-10-02T20:36:40.091Z,7.00
2022-10-02T20:39:17.733Z,6.00
2022-10-02T20:42:21.486Z,6.00
2022-10-02T20:44:54.689Z,4.00
2022-10-02T20:48:00.350Z,7.75
2022-10-02T20:51:04.514Z,7.25
2022-10-02T20:54:16.194Z,5.25
2022-10-02T20:57:33.548Z,7.50
2022-10-02T21:00:25.362Z,6.25
2022-10-02T21:03:14.280Z,7.00
2022-10-02T21:06:09.629Z,6.00
2022-10-02T21:09:15.082Z,4.00
2022-10-02T21:12:28.931Z,6.00
2022-10-02T21:15:09.700Z,6.25
2022-10-02T21:18:02.080Z,4.75
2022-10-02T21:20:58.623Z,6.00
2022-10-02T21:24:05.747Z,7.00
2022-10-02T21:26:59.744Z,4.25
2022-10-02T21:29:59.926Z,7.50
2022-10-02T21:32:57.074Z,6.50
2022-10-02T21:36:01.767Z,6.75
2022-10-02T21:38:49.985Z,4.75
2022-10-02T21:41:57.097Z,6.00
2022-10-02T21:44:47.647Z,6.00
2022-10-02T21:47:55.326Z,5.50
2022-10-02T21:50:47.923Z,7.50
2022-10-02T21:53:39.896Z,5.50
2022-10-02T21:57:00.433Z,7.00
2022-10-02T22:00:07.953Z,7.00
2022-10-02T22:03:14.988Z,6.00
2022-10-02T22:06:21.503Z,7.00
2022-10-02T22:09:42.305Z,7.00
2022-10-02T22:12:21.330Z,7.00
2022-10-02T22:15:11.419Z,5.00
2022-10-02T22:18:03.575Z,7.00
2022-10-02T22:20:55.638Z,6.25
2022-10-02T22:23:54.278Z,4.00
2022-10-02T22:27:02.795Z,6.50
2022-10-02T22:29:56.456Z,5.25
2022-10-02T22:33:11.820Z,6.00
2022-10-02T22:36:00.717Z,7.00
2022-10-02T22:38:35.752Z,7.50
2022-10-02T22:41:29.301Z,7.50
2022-10-02T22:44:26.176Z,6.00
2022-10-02T22:47:17.951Z,6.75
2022-10-02T22:50:08.116Z,8.00
2022-10-02T22:53:25.659Z,5.50
2022-10-02T22:56:00.647Z,7.00
2022-10-02T22:58:45.964Z,7.00
2022-10-02T23:01:28.540Z,8.00
2022-10-02T23:04:24.774Z,9.00
2022-10-02T23:07:09.936Z,8.00
2022-10-02T23:10:24.508Z,9.00
2022-10-02T23:13:26.728Z,7.00
2022-10-02T23:16:01.384Z,6.00
2022-10-02T23:18:56.328Z,5.75
2022-10-02T23:21:45.234Z,6.25
2022-10-02T23:24:31.255Z,6.75
2022-10-02T23:27:37.716Z,7.00
2022-10-02T23:30:16.249Z,7.50
2022-10-02T23:33:19.990Z,8.50
2022-10-02T23:36:22.153Z,7.00
2022-10-02T23:39:16.216Z,7.00
2022-10-02T23:41:57.597Z,8.00
2022-10-02T23:44:34.376Z,7.00
2022-10-02T23:47:13.838Z,7.00
2022-10-02T23:49:56.733Z,9.00
2022-10-02T23:53:00.983Z,7.25
2022-10-02T23:56:02.738Z,7.25
2022-10-02T23:58:45.010Z,7.75
